Arnold, Missouri
Current Conditions -  °F | °C
As of 4:53 PM on Thursday 20 Nov 2014 (Local Time) from KCPS Reporting Station
Clear Clear  
Wind Chill: 29°   Ceiling: Unl
Heat Index: 33°   Visibility: 10mi
Dew Point: 19°   Wind: 5mph
Humidity: 56%   Direction: 340°NNW
Pressure: 30.22"   Gusts: NA
Location:  38.42°N, 90.37°W
Report Text: KCPS 202253Z 34004KT 10SM CLR 01/M07 A3022 RMK AO2 SLP240 T00061072
Loading
Personal Weather Stations






























Interactive Weather Map New forecast layout! Learn more

10-Day Weather Forecast

Advertisements
Track Severe Weather on mobile